createdAt,value
2023-01-18T00:01:05.740Z,95821.66
2023-01-18T00:03:51.226Z,95812.16
2023-01-18T00:06:36.749Z,95841.53
2023-01-18T00:09:22.103Z,95867.63
2023-01-18T00:12:07.445Z,95822.75
2023-01-18T00:14:52.884Z,95857.25
2023-01-18T00:17:53.310Z,95995.97
2023-01-18T00:20:39.147Z,95984.03
2023-01-18T00:23:24.425Z,95893.31
2023-01-18T00:26:11.433Z,95962.22
2023-01-18T00:28:57.299Z,95947.31
2023-01-18T00:31:43.306Z,95752.94
2023-01-18T00:34:28.775Z,95908.53
2023-01-18T00:37:14.205Z,95922.72
2023-01-18T00:39:59.835Z,95917.13
2023-01-18T00:43:03.816Z,95743.28
2023-01-18T00:45:49.405Z,95921.03
2023-01-18T00:48:36.057Z,95885.06
2023-01-18T00:51:24.787Z,95887.22
2023-01-18T00:54:10.163Z,95916.72
2023-01-18T00:56:55.645Z,95825.66
2023-01-18T00:59:41.121Z,95742.75
2023-01-18T01:02:26.451Z,95861.69
2023-01-18T01:05:38.704Z,95813.00
2023-01-18T01:08:24.103Z,95683.66
2023-01-18T01:11:12.146Z,95819.72
2023-01-18T01:14:16.159Z,95694.53
2023-01-18T01:17:20.177Z,95829.75
2023-01-18T01:20:24.462Z,95801.69
2023-01-18T01:23:37.767Z,95778.72
2023-01-18T01:26:23.025Z,95817.66
2023-01-18T01:29:08.716Z,95798.16
2023-01-18T01:31:53.961Z,95824.81
2023-01-18T01:34:39.483Z,95676.47
2023-01-18T01:37:24.799Z,95647.03
2023-01-18T01:40:11.311Z,95609.66
2023-01-18T01:42:57.027Z,95798.50
2023-01-18T01:45:42.790Z,95621.09
2023-01-18T01:48:28.149Z,95706.69
2023-01-18T01:51:15.233Z,95791.41
2023-01-18T01:54:03.768Z,95796.03
2023-01-18T01:56:53.718Z,95612.66
2023-01-18T01:59:44.412Z,95619.44
2023-01-18T02:02:32.809Z,95773.06
2023-01-18T02:05:18.723Z,95692.84
2023-01-18T02:08:06.174Z,95599.63
2023-01-18T02:10:52.863Z,95750.31
2023-01-18T02:13:38.355Z,95788.13
2023-01-18T02:16:45.512Z,95807.16
2023-01-18T02:19:43.293Z,95811.44
2023-01-18T02:23:07.485Z,95773.03
2023-01-18T02:26:29.895Z,95658.59
2023-01-18T02:29:17.674Z,95778.50
2023-01-18T02:32:42.129Z,95771.00
2023-01-18T02:35:43.116Z,95747.50
2023-01-18T02:38:37.963Z,95766.34
2023-01-18T02:41:49.604Z,95694.25
2023-01-18T02:45:00.767Z,95702.00
2023-01-18T02:47:46.756Z,95745.81
2023-01-18T02:50:32.275Z,95615.28
2023-01-18T02:53:18.274Z,95758.94
2023-01-18T02:56:26.203Z,95764.69
2023-01-18T02:59:38.108Z,95769.47
2023-01-18T03:02:26.391Z,95780.44
2023-01-18T03:05:12.203Z,95718.38
2023-01-18T03:08:11.356Z,95770.41
2023-01-18T03:11:06.340Z,95717.41
2023-01-18T03:14:01.645Z,95769.13
2023-01-18T03:16:58.077Z,95554.97
2023-01-18T03:20:07.234Z,95562.59
2023-01-18T03:23:20.137Z,95751.06
2023-01-18T03:26:16.419Z,95717.91
2023-01-18T03:29:23.096Z,95694.88
2023-01-18T03:32:31.561Z,95690.22
2023-01-18T03:35:19.182Z,95522.56
2023-01-18T03:38:05.019Z,95693.31
2023-01-18T03:40:50.348Z,95512.34
2023-01-18T03:43:37.818Z,95640.84
2023-01-18T03:46:26.494Z,95492.91
2023-01-18T03:49:12.995Z,95657.03
2023-01-18T03:52:01.806Z,95632.97
2023-01-18T03:55:05.353Z,95504.97
2023-01-18T03:57:59.882Z,95662.06
2023-01-18T04:00:45.638Z,95702.84
2023-01-18T04:03:34.942Z,95695.19
2023-01-18T04:06:22.929Z,95686.38
2023-01-18T04:09:08.343Z,95601.84
2023-01-18T04:11:54.032Z,95516.63
2023-01-18T04:14:39.233Z,95655.38
2023-01-18T04:17:24.717Z,95693.28
2023-01-18T04:20:10.581Z,95499.47
2023-01-18T04:22:56.774Z,95657.28
2023-01-18T04:25:50.041Z,95562.38
2023-01-18T04:28:35.872Z,95530.91
2023-01-18T04:31:22.028Z,95543.09
2023-01-18T04:34:07.749Z,95692.03
2023-01-18T04:36:53.597Z,95729.19
2023-01-18T04:39:39.047Z,95744.13
2023-01-18T04:42:25.810Z,95580.03
2023-01-18T04:45:14.190Z,95540.00
2023-01-18T04:47:59.333Z,95713.06
2023-01-18T04:50:46.578Z,95714.84
2023-01-18T04:53:34.933Z,95703.56
2023-01-18T04:56:20.264Z,95721.19
2023-01-18T04:59:06.225Z,95571.94
2023-01-18T05:01:51.638Z,95674.19
2023-01-18T05:04:37.105Z,95721.41
2023-01-18T05:07:25.253Z,95676.81
2023-01-18T05:10:10.981Z,95719.84
2023-01-18T05:12:56.593Z,95718.56
2023-01-18T05:15:42.604Z,95693.97
2023-01-18T05:18:29.342Z,95664.06
2023-01-18T05:21:15.731Z,95730.94
2023-01-18T05:24:01.489Z,95728.41
2023-01-18T05:26:46.629Z,95694.25
2023-01-18T05:29:32.008Z,95694.44
2023-01-18T05:32:17.699Z,95614.13
2023-01-18T05:35:07.157Z,95594.56
2023-01-18T05:37:52.860Z,95528.44
2023-01-18T05:40:38.315Z,95709.25
2023-01-18T05:43:25.826Z,95715.94
2023-01-18T05:46:11.278Z,95734.16
2023-01-18T05:48:58.346Z,95671.28
2023-01-18T05:51:43.971Z,95720.84
2023-01-18T05:54:29.357Z,95675.09
2023-01-18T05:57:14.857Z,95531.03
2023-01-18T06:00:00.305Z,95600.47
2023-01-18T06:02:45.553Z,95692.47
2023-01-18T06:05:31.195Z,95543.78
2023-01-18T06:08:16.595Z,95689.72
2023-01-18T06:11:02.235Z,95751.91
2023-01-18T06:13:47.832Z,95674.78
2023-01-18T06:16:33.103Z,95692.69
2023-01-18T06:19:18.815Z,95589.28
2023-01-18T06:22:04.179Z,95743.53
2023-01-18T06:24:50.169Z,95591.19
2023-01-18T06:27:35.711Z,95564.16
2023-01-18T06:30:22.040Z,95582.63
2023-01-18T06:33:08.585Z,95713.78
2023-01-18T06:35:53.957Z,95754.31
2023-01-18T06:38:39.175Z,95769.91
2023-01-18T06:41:24.554Z,95686.56
2023-01-18T06:44:10.011Z,95689.44
2023-01-18T06:46:55.379Z,95792.25
2023-01-18T06:49:40.863Z,95727.56
2023-01-18T06:52:26.279Z,95718.09
2023-01-18T06:55:13.010Z,95577.97
2023-01-18T06:57:58.365Z,95593.09
2023-01-18T07:00:43.699Z,95664.88
2023-01-18T07:03:30.742Z,95651.25
2023-01-18T07:06:16.255Z,95640.31
2023-01-18T07:09:01.618Z,95566.41
2023-01-18T07:11:47.003Z,95574.50
2023-01-18T07:14:32.512Z,95728.75
2023-01-18T07:17:17.835Z,95601.19
2023-01-18T07:20:03.414Z,95764.78
2023-01-18T07:22:52.711Z,95768.78
2023-01-18T07:25:38.167Z,95773.78
2023-01-18T07:28:23.671Z,95743.84
2023-01-18T07:31:09.318Z,95756.63
2023-01-18T07:33:54.947Z,95752.59
2023-01-18T07:36:41.866Z,95716.31
2023-01-18T07:39:27.573Z,95597.13
2023-01-18T07:42:13.132Z,95642.66
2023-01-18T07:44:58.547Z,95788.59
2023-01-18T07:47:46.370Z,95806.53
2023-01-18T07:50:33.570Z,95622.75
2023-01-18T07:53:20.485Z,95811.75
2023-01-18T07:56:09.431Z,95792.59
2023-01-18T07:58:55.647Z,95668.53
2023-01-18T08:01:41.205Z,95601.28
2023-01-18T08:04:26.750Z,95601.88
2023-01-18T08:07:12.053Z,95600.53
2023-01-18T08:09:58.106Z,95619.16
2023-01-18T08:12:44.162Z,95654.06
2023-01-18T08:15:30.021Z,95778.69
2023-01-18T08:18:15.688Z,95800.91
2023-01-18T08:21:01.456Z,95749.63
2023-01-18T08:23:46.851Z,95777.97
2023-01-18T08:26:34.125Z,95794.91
2023-01-18T08:29:19.802Z,95615.53
2023-01-18T08:32:05.518Z,95762.38
2023-01-18T08:34:51.529Z,95608.50
2023-01-18T08:37:36.773Z,95767.25
2023-01-18T08:40:26.664Z,95777.56
2023-01-18T08:43:12.336Z,95608.47
2023-01-18T08:45:57.593Z,95778.19
2023-01-18T08:48:43.828Z,95802.94
2023-01-18T08:51:29.454Z,95626.53
2023-01-18T08:54:14.818Z,95786.56
2023-01-18T08:57:02.443Z,95749.72
2023-01-18T08:59:47.918Z,95632.50
2023-01-18T09:02:33.358Z,95756.22
2023-01-18T09:05:18.855Z,95798.28
2023-01-18T09:08:08.403Z,95760.41
2023-01-18T09:10:54.234Z,95786.38
2023-01-18T09:13:58.589Z,95769.72
2023-01-18T09:16:44.473Z,95659.41
2023-01-18T09:19:30.200Z,95778.94
2023-01-18T09:22:15.849Z,95691.75
2023-01-18T09:25:01.235Z,95773.13
2023-01-18T09:27:46.869Z,95718.00
2023-01-18T09:30:33.124Z,95593.75
2023-01-18T09:33:18.836Z,95738.41
2023-01-18T09:36:07.823Z,95587.66
2023-01-18T09:38:55.500Z,95769.03
2023-01-18T09:41:44.763Z,95730.66
2023-01-18T09:44:35.082Z,95801.16
2023-01-18T09:47:26.962Z,95718.41
2023-01-18T09:50:20.865Z,95617.16
2023-01-18T09:53:34.652Z,95777.19
2023-01-18T09:56:39.205Z,95756.53
2023-01-18T09:59:35.686Z,95748.34
2023-01-18T10:02:24.336Z,95600.94
2023-01-18T10:05:21.472Z,95629.56
2023-01-18T10:08:16.640Z,95677.31
2023-01-18T10:11:36.650Z,95738.88
2023-01-18T10:14:28.601Z,95602.66
2023-01-18T10:17:24.024Z,95608.38
2023-01-18T10:20:20.767Z,95721.09
2023-01-18T10:23:09.253Z,95764.88
2023-01-18T10:26:01.009Z,95630.84
2023-01-18T10:28:56.309Z,95786.81
2023-01-18T10:31:51.156Z,95788.06
2023-01-18T10:34:41.750Z,95771.78
2023-01-18T10:37:27.369Z,95759.44
2023-01-18T10:40:14.686Z,95765.06
2023-01-18T10:43:02.482Z,95690.72
2023-01-18T10:45:48.319Z,95672.91
2023-01-18T10:48:34.871Z,95799.50
2023-01-18T10:51:29.284Z,95794.88
2023-01-18T10:54:19.028Z,95788.66
2023-01-18T10:57:05.761Z,95612.63
2023-01-18T10:59:53.692Z,95804.41
2023-01-18T11:02:40.572Z,95749.13
2023-01-18T11:05:34.171Z,95795.78
2023-01-18T11:08:32.654Z,95762.75
2023-01-18T11:34:38.237Z,95759.75
2023-01-18T11:37:37.496Z,95778.03
2023-01-18T11:40:27.987Z,95617.03
2023-01-18T11:43:20.430Z,95607.25
2023-01-18T11:46:18.503Z,95784.00
2023-01-18T11:49:09.692Z,95619.06
2023-01-18T11:52:00.303Z,95807.63
2023-01-18T11:54:54.188Z,95853.25
2023-01-18T11:57:39.442Z,95818.66
2023-01-18T12:00:28.256Z,95848.88
2023-01-18T12:03:33.850Z,95834.28
2023-01-18T12:06:27.224Z,95857.81
2023-01-18T12:09:37.489Z,95721.66
2023-01-18T12:12:53.483Z,95904.38
2023-01-18T12:15:49.505Z,95890.66
2023-01-18T12:19:01.541Z,95908.56
2023-01-18T12:21:56.441Z,95906.59
2023-01-18T12:25:00.207Z,95899.72
2023-01-18T12:28:04.882Z,95913.00
2023-01-18T12:30:57.521Z,95903.38
2023-01-18T12:33:46.373Z,95896.00
2023-01-18T12:36:51.906Z,95826.44
2023-01-18T12:40:06.494Z,95791.41
2023-01-18T12:43:01.313Z,95789.34
2023-01-18T12:46:10.261Z,95784.00
2023-01-18T12:49:02.041Z,95862.03
2023-01-18T12:51:50.550Z,95891.28
2023-01-18T12:54:40.998Z,95772.78
2023-01-18T12:57:29.834Z,95879.69
2023-01-18T13:00:23.097Z,95883.97
2023-01-18T13:03:14.584Z,95883.78
2023-01-18T13:06:02.429Z,95797.28
2023-01-18T13:09:04.938Z,95786.59
2023-01-18T13:11:50.507Z,95914.72
2023-01-18T13:15:01.844Z,95913.94
2023-01-18T13:18:06.457Z,95915.81
2023-01-18T13:21:06.348Z,95769.59
2023-01-18T13:24:00.537Z,95964.25
2023-01-18T13:26:46.882Z,95961.03
2023-01-18T13:29:32.333Z,95774.94
2023-01-18T13:32:26.487Z,95935.19
2023-01-18T13:35:25.851Z,95905.72
2023-01-18T13:38:13.367Z,95945.53
2023-01-18T13:41:02.780Z,95790.63
2023-01-18T13:43:51.584Z,95840.41
2023-01-18T13:46:39.336Z,95944.19
2023-01-18T13:49:38.244Z,95970.16
2023-01-18T13:52:35.828Z,95869.13
2023-01-18T13:55:31.362Z,95979.63
2023-01-18T13:58:35.006Z,95959.81
2023-01-18T14:01:23.796Z,95963.72
2023-01-18T14:04:21.803Z,95981.81
2023-01-18T14:07:16.835Z,95941.41
2023-01-18T14:10:08.050Z,95872.28
2023-01-18T14:12:55.747Z,96036.50
2023-01-18T14:15:53.327Z,96028.09
2023-01-18T14:18:39.379Z,95908.03
2023-01-18T14:21:38.071Z,95916.88
2023-01-18T14:25:10.545Z,96080.16
2023-01-18T14:28:13.480Z,96097.59
2023-01-18T14:31:01.722Z,96073.22
2023-01-18T14:33:47.990Z,96110.09
2023-01-18T14:36:36.142Z,96110.81
2023-01-18T14:39:22.492Z,96088.28
2023-01-18T14:42:12.043Z,95982.63
2023-01-18T14:44:59.170Z,96066.69
2023-01-18T14:47:47.741Z,96129.00
2023-01-18T14:50:46.983Z,96095.38
2023-01-18T14:53:38.545Z,96166.69
2023-01-18T14:56:26.373Z,96161.91
2023-01-18T14:59:24.730Z,96203.13
2023-01-18T15:02:19.001Z,96020.84
2023-01-18T15:05:13.606Z,96158.97
2023-01-18T15:07:59.582Z,96158.16
2023-01-18T15:10:46.039Z,96114.59
2023-01-18T15:13:33.012Z,96079.13
2023-01-18T15:16:21.814Z,96201.38
2023-01-18T15:19:14.185Z,96176.22
2023-01-18T15:22:02.167Z,96207.63
2023-01-18T15:24:47.829Z,96153.41
2023-01-18T15:27:33.614Z,96254.44
2023-01-18T15:30:22.530Z,96243.47
2023-01-18T15:33:09.977Z,96214.72
2023-01-18T15:36:01.186Z,96272.84
2023-01-18T15:38:46.711Z,96263.03
2023-01-18T15:41:33.235Z,96281.97
2023-01-18T15:44:35.767Z,96287.38
2023-01-18T15:47:29.164Z,96316.44
2023-01-18T15:50:23.229Z,96339.78
2023-01-18T15:53:34.077Z,96153.63
2023-01-18T15:56:24.465Z,96295.84
2023-01-18T15:59:10.295Z,96322.38
2023-01-18T16:02:08.353Z,96389.88
2023-01-18T16:05:21.130Z,96253.25
2023-01-18T16:08:20.165Z,96313.50
2023-01-18T16:11:06.173Z,96394.84
2023-01-18T16:14:00.979Z,96256.56
2023-01-18T16:16:47.261Z,96292.22
2023-01-18T16:19:44.313Z,96425.97
2023-01-18T16:22:34.023Z,96255.28
2023-01-18T16:25:22.995Z,96364.13
2023-01-18T16:28:08.618Z,96318.03
2023-01-18T16:30:55.187Z,96406.66
2023-01-18T16:33:40.703Z,96434.19
2023-01-18T16:36:29.707Z,96263.56
2023-01-18T16:39:18.805Z,96386.25
2023-01-18T16:42:04.387Z,96431.06
2023-01-18T16:44:49.781Z,96463.94
2023-01-18T16:47:35.171Z,96429.41
2023-01-18T16:50:20.792Z,96369.25
2023-01-18T16:53:06.646Z,96417.19
2023-01-18T16:55:53.021Z,96466.38
2023-01-18T16:58:38.345Z,96487.72
2023-01-18T17:01:24.402Z,96502.56
2023-01-18T17:04:12.654Z,96514.84
2023-01-18T17:06:58.144Z,96425.13
2023-01-18T17:09:48.816Z,96546.28
2023-01-18T17:12:34.753Z,96452.69
2023-01-18T17:15:20.303Z,96535.47
2023-01-18T17:18:08.212Z,96505.00
2023-01-18T17:20:55.220Z,96379.38
2023-01-18T17:23:40.530Z,96365.34
2023-01-18T17:26:26.033Z,96367.75
2023-01-18T17:29:17.822Z,96560.91
2023-01-18T17:32:03.415Z,96566.19
2023-01-18T17:34:49.352Z,96568.59
2023-01-18T17:37:35.603Z,96438.53
2023-01-18T17:40:30.780Z,96626.66
2023-01-18T17:43:32.130Z,96494.03
2023-01-18T17:46:19.917Z,96628.78
2023-01-18T17:49:05.718Z,96467.81
2023-01-18T17:51:51.070Z,96451.72
2023-01-18T17:54:36.338Z,96456.38
2023-01-18T17:57:21.989Z,96610.97
2023-01-18T18:00:12.183Z,96559.22
2023-01-18T18:03:01.072Z,96541.63
2023-01-18T18:05:47.091Z,96612.16
2023-01-18T18:08:33.984Z,96455.00
2023-01-18T18:11:19.328Z,96577.16
2023-01-18T18:14:04.905Z,96444.84
2023-01-18T18:16:50.156Z,96602.00
2023-01-18T18:19:35.551Z,96451.75
2023-01-18T18:22:21.516Z,96561.19
2023-01-18T18:25:07.453Z,96660.19
2023-01-18T18:27:52.620Z,96619.16
2023-01-18T18:30:38.183Z,96596.75
2023-01-18T18:33:24.803Z,96534.84
2023-01-18T18:36:10.251Z,96700.53
2023-01-18T18:38:55.564Z,96691.09
2023-01-18T18:41:43.272Z,96697.66
2023-01-18T18:44:29.555Z,96654.59
2023-01-18T18:47:14.823Z,96506.41
2023-01-18T18:50:00.607Z,96541.75
2023-01-18T18:52:45.835Z,96678.63
2023-01-18T18:55:32.061Z,96684.41
2023-01-18T18:58:17.874Z,96667.31
2023-01-18T19:01:03.809Z,96538.47
2023-01-18T19:03:51.176Z,96486.53
2023-01-18T19:06:38.310Z,96711.16
2023-01-18T19:09:23.936Z,96677.09
2023-01-18T19:12:09.538Z,96566.56
2023-01-18T19:14:54.957Z,96573.75
2023-01-18T19:17:40.355Z,96710.34
2023-01-18T19:20:25.836Z,96610.03
2023-01-18T19:23:11.674Z,96582.28
2023-01-18T19:25:57.289Z,96725.63
2023-01-18T19:28:42.980Z,96632.72
2023-01-18T19:31:28.592Z,96648.13
2023-01-18T19:34:18.689Z,96769.44
2023-01-18T19:37:05.535Z,96769.88
2023-01-18T19:39:51.064Z,96614.78
2023-01-18T19:42:36.816Z,96782.22
2023-01-18T19:45:28.122Z,96721.78
2023-01-18T19:48:15.329Z,96619.13
2023-01-18T19:51:20.718Z,96743.78
2023-01-18T19:54:07.967Z,96820.09
2023-01-18T19:56:53.550Z,96693.34
2023-01-18T19:59:39.049Z,96796.38
2023-01-18T20:02:24.747Z,96615.97
2023-01-18T20:05:12.492Z,96817.78
2023-01-18T20:07:58.379Z,96812.88
2023-01-18T20:10:44.399Z,96803.88
2023-01-18T20:13:30.144Z,96771.50
2023-01-18T20:16:17.803Z,96823.44
2023-01-18T20:19:03.297Z,96807.66
2023-01-18T20:21:49.704Z,96745.75
2023-01-18T20:24:35.271Z,96766.59
2023-01-18T20:27:20.804Z,96835.59
2023-01-18T20:30:06.795Z,96861.44
2023-01-18T20:32:52.662Z,96676.41
2023-01-18T20:35:39.162Z,96745.84
2023-01-18T20:38:25.292Z,96865.03
2023-01-18T20:41:10.971Z,96851.44
2023-01-18T20:43:56.466Z,96698.38
2023-01-18T20:46:41.949Z,96877.06
2023-01-18T20:49:36.958Z,96621.63
2023-01-18T20:52:23.722Z,96810.81
2023-01-18T20:55:12.831Z,96715.72
2023-01-18T20:57:58.323Z,96841.00
2023-01-18T21:00:44.280Z,96866.47
2023-01-18T21:03:29.776Z,96870.25
2023-01-18T21:06:16.060Z,96800.22
2023-01-18T21:09:01.686Z,96861.13
2023-01-18T21:11:46.919Z,96699.63
2023-01-18T21:14:32.824Z,96787.19
2023-01-18T21:17:18.368Z,96720.13
2023-01-18T21:20:04.414Z,96812.94
2023-01-18T21:22:50.067Z,96802.69
2023-01-18T21:25:35.317Z,96871.97
2023-01-18T21:28:21.145Z,96702.00
2023-01-18T21:31:07.939Z,96882.63
2023-01-18T21:33:54.683Z,96865.84
2023-01-18T21:36:40.426Z,96743.38
2023-01-18T21:39:25.883Z,96887.97
2023-01-18T21:42:30.364Z,96733.16
2023-01-18T21:45:34.532Z,96904.63
2023-01-18T21:48:20.056Z,96882.84
2023-01-18T21:51:24.544Z,96736.66
2023-01-18T21:54:17.003Z,96936.00
2023-01-18T21:57:02.779Z,96948.28
2023-01-18T21:59:48.945Z,96938.63
2023-01-18T22:02:36.098Z,96930.22
2023-01-18T22:05:21.464Z,96912.47
2023-01-18T22:08:07.150Z,96781.63
2023-01-18T22:10:52.538Z,96885.75
2023-01-18T22:13:38.497Z,96953.38
2023-01-18T22:16:30.050Z,96747.34
2023-01-18T22:19:16.309Z,96889.34
2023-01-18T22:22:02.479Z,96894.84
2023-01-18T22:24:48.767Z,96701.63
2023-01-18T22:27:35.330Z,96875.53
2023-01-18T22:30:20.895Z,96734.59
2023-01-18T22:33:06.369Z,96906.22
2023-01-18T22:35:57.597Z,96828.56
2023-01-18T22:38:43.876Z,96921.22
2023-01-18T22:41:29.739Z,96936.25
2023-01-18T22:44:17.312Z,96938.44
2023-01-18T22:47:03.324Z,96926.25
2023-01-18T22:49:48.898Z,96913.34
2023-01-18T22:52:34.308Z,96829.63
2023-01-18T22:55:19.863Z,96798.19
2023-01-18T22:58:05.217Z,96967.13
2023-01-18T23:00:50.709Z,96910.69
2023-01-18T23:03:36.936Z,96935.63
2023-01-18T23:06:23.008Z,96924.50
2023-01-18T23:09:14.687Z,96914.81
2023-01-18T23:12:00.154Z,96968.84
2023-01-18T23:15:04.252Z,96781.00
2023-01-18T23:17:50.052Z,96908.31
2023-01-18T23:20:36.783Z,96917.84
2023-01-18T23:23:22.436Z,96965.47
2023-01-18T23:26:07.987Z,96929.78
2023-01-18T23:28:53.349Z,96788.53
2023-01-18T23:31:38.823Z,96995.03
2023-01-18T23:34:24.198Z,96870.97
2023-01-18T23:37:09.898Z,97001.94
2023-01-18T23:40:13.981Z,96959.47
2023-01-18T23:43:18.050Z,97046.03
2023-01-18T23:46:22.244Z,97004.72
2023-01-18T23:49:28.506Z,96975.66
2023-01-18T23:52:32.584Z,96870.97
2023-01-18T23:55:18.005Z,96853.31
2023-01-18T23:58:03.723Z,96923.13
